Sam Sing — PH2979 — position and weather

sailwx.info

Track history (hours):
 
Tides and Currents Weather Stations Pressure Air Temp Water Temp Dewpoint Dewpoint Depression Visibility Wind Speed Wind Dir Waves Ship Positions

Sam Sing

Last reported at 2017-Nov-04 09:26 UTC. Time now 2017-Nov-19 10:36 UTC.
Position N 51°60' E 003°58'.
Warning: this ship's position is 15 days out of date.

Length 13 m.

Type: Sailing vessel. MMSI: 244020860.

Date/timePositionNaut miles runAvg speedWind from/ knotsBaromVisibWave heightAir tempDewpointWater temp
2017-Nov-04 09:26N 51°60' E 003°58'4 8.6
2017-Nov-04 09:00N 52°02' E 004°03'5 9.3
2017-Nov-04 08:28N 52°05' E 004°09'4 7.9
2017-Nov-04 08:00N 52°06' E 004°15'1 0.0
2017-Nov-03 13:08N 52°06' E 004°16'0 3.6
2017-Nov-03 13:00N 52°06' E 004°15'2 5.0
2017-Nov-03 12:30N 52°08' E 004°16'3 5.8
2017-Nov-03 12:00N 52°11' E 004°18'2 4.4
2017-Nov-03 11:30N 52°12' E 004°21'4 7.2
2017-Nov-03 11:00N 52°15' E 004°23'5 7.0
2017-Nov-03 10:15N 52°20' E 004°25'2 6.5
2017-Nov-03 10:00N 52°21' E 004°28'4 8.1
2017-Nov-03 09:30N 52°25' E 004°30'3 6.7
2017-Nov-03 09:00N 52°28' E 004°32'1 2.6
2017-Nov-03 08:31N 52°28' E 004°34'1 2.8
2017-Nov-03 08:01N 52°28' E 004°36'0 0.1
2017-Nov-03 07:28N 52°28' E 004°36'0 0.0
2017-Nov-03 06:58N 52°28' E 004°36'0 0.0
2017-Nov-02 19:31N 52°28' E 004°36'0 0.0
2017-Nov-02 19:28N 52°28' E 004°36'2 4.7
2017-Nov-02 18:59N 52°28' E 004°40'8 7.3
2017-Nov-02 17:54N 52°25' E 004°52'3 6.9
2017-Nov-02 17:30N 52°23' E 004°55'2 4.5
2017-Nov-02 17:00N 52°23' E 004°58'4 6.7
2017-Nov-02 16:24N 52°24' E 005°04'3 7.7
2017-Nov-02 16:00N 52°27' E 005°07'3 6.1
2017-Nov-02 15:30N 52°30' E 005°06'3 5.2
2017-Nov-02 15:00N 52°28' E 005°03'1 1.2
2017-Nov-02 14:29N 52°28' E 005°02'0 0.0
2017-Nov-02 13:59N 52°28' E 005°02'0 0.0
2017-Nov-02 13:29N 52°28' E 005°02'0 0.0
2017-Nov-02 12:59N 52°28' E 005°02'0 0.0
2017-Nov-02 12:29N 52°28' E 005°02'0 0.0
2017-Nov-02 11:56N 52°28' E 005°02'0 0.0
2017-Oct-31 13:25N 52°28' E 005°02'0 0.0
2017-Oct-29 16:35N 52°28' E 005°02'0 0.0
2017-Oct-29 16:29N 52°28' E 005°02'0 0.0
2017-Oct-29 15:56N 52°28' E 005°02'0 0.0
2017-Oct-29 15:29N 52°28' E 005°02'0 0.0
2017-Oct-29 14:59N 52°28' E 005°02'0 0.0
2017-Oct-29 14:29N 52°28' E 005°02'0 0.0
2017-Oct-29 14:00N 52°28' E 005°02'0 0.0
2017-Oct-29 13:30N 52°28' E 005°02'0 0.0
2017-Oct-29 13:00N 52°28' E 005°02'0 0.0
2017-Oct-29 12:30N 52°28' E 005°02'  
Track history (hours):
 
Tides and Currents Weather Stations Pressure Air Temp Water Temp Dewpoint Dewpoint Depression Visibility Wind Speed Wind Dir Waves Ship Positions

Sam Sing

Last reported at 2017-Nov-04 09:26 UTC. Time now 2017-Nov-19 10:36 UTC.
Position N 51°60' E 003°58'.
Warning: this ship's position is 15 days out of date.

Length 13 m.

Type: Sailing vessel. MMSI: 244020860.

Date/timePositionNaut miles runAvg speedWind from/ knotsBaromVisibWave heightAir tempDewpointWater temp
2017-Nov-04 09:26N 51°60' E 003°58'4 8.6
2017-Nov-04 09:00N 52°02' E 004°03'5 9.3
2017-Nov-04 08:28N 52°05' E 004°09'4 7.9
2017-Nov-04 08:00N 52°06' E 004°15'1 0.0
2017-Nov-03 13:08N 52°06' E 004°16'0 3.6
2017-Nov-03 13:00N 52°06' E 004°15'2 5.0
2017-Nov-03 12:30N 52°08' E 004°16'3 5.8
2017-Nov-03 12:00N 52°11' E 004°18'2 4.4
2017-Nov-03 11:30N 52°12' E 004°21'4 7.2
2017-Nov-03 11:00N 52°15' E 004°23'5 7.0
2017-Nov-03 10:15N 52°20' E 004°25'2 6.5
2017-Nov-03 10:00N 52°21' E 004°28'4 8.1
2017-Nov-03 09:30N 52°25' E 004°30'3 6.7
2017-Nov-03 09:00N 52°28' E 004°32'1 2.6
2017-Nov-03 08:31N 52°28' E 004°34'1 2.8
2017-Nov-03 08:01N 52°28' E 004°36'0 0.1
2017-Nov-03 07:28N 52°28' E 004°36'0 0.0
2017-Nov-03 06:58N 52°28' E 004°36'0 0.0
2017-Nov-02 19:31N 52°28' E 004°36'0 0.0
2017-Nov-02 19:28N 52°28' E 004°36'2 4.7
2017-Nov-02 18:59N 52°28' E 004°40'8 7.3
2017-Nov-02 17:54N 52°25' E 004°52'3 6.9
2017-Nov-02 17:30N 52°23' E 004°55'2 4.5
2017-Nov-02 17:00N 52°23' E 004°58'4 6.7
2017-Nov-02 16:24N 52°24' E 005°04'3 7.7
2017-Nov-02 16:00N 52°27' E 005°07'3 6.1
2017-Nov-02 15:30N 52°30' E 005°06'3 5.2
2017-Nov-02 15:00N 52°28' E 005°03'1 1.2
2017-Nov-02 14:29N 52°28' E 005°02'0 0.0
2017-Nov-02 13:59N 52°28' E 005°02'0 0.0
2017-Nov-02 13:29N 52°28' E 005°02'0 0.0
2017-Nov-02 12:59N 52°28' E 005°02'0 0.0
2017-Nov-02 12:29N 52°28' E 005°02'0 0.0
2017-Nov-02 11:56N 52°28' E 005°02'0 0.0
2017-Oct-31 13:25N 52°28' E 005°02'0 0.0
2017-Oct-29 16:35N 52°28' E 005°02'0 0.0
2017-Oct-29 16:29N 52°28' E 005°02'0 0.0
2017-Oct-29 15:56N 52°28' E 005°02'0 0.0
2017-Oct-29 15:29N 52°28' E 005°02'0 0.0
2017-Oct-29 14:59N 52°28' E 005°02'0 0.0
2017-Oct-29 14:29N 52°28' E 005°02'0 0.0
2017-Oct-29 14:00N 52°28' E 005°02'0 0.0
2017-Oct-29 13:30N 52°28' E 005°02'0 0.0
2017-Oct-29 13:00N 52°28' E 005°02'0 0.0
2017-Oct-29 12:30N 52°28' E 005°02'  

Dump ship's entire track history